Time;durP1;ratioP1;P1;durP2;ratioP2;P2;SDS_P1;SDS_P2;PMS_P1;PMS_P2;Temp;Humidity;BMP_temperature;BMP_pressure;BME280_temperature;BME280_humidity;BME280_pressure;Samples;Min_cycle;Max_cycle;Signal;HPM_P1;HPM_P2
2022/02/10 00:05:37;;;;;;;14.25;7.03;;;;;;;4.22;69.30;100738.75;1770872;79;21071;-68
2022/02/10 00:08:01;;;;;;;13.30;7.62;;;;;;;4.24;69.40;100734.55;1770470;79;21031;-69
2022/02/10 00:18:35;;;;;;;16.25;7.50;;;;;;;4.31;69.72;100720.81;1769258;81;21109;-68
2022/02/10 00:20:58;;;;;;;14.63;7.37;;;;;;;4.32;69.82;100717.14;1770897;79;20973;-67
2022/02/10 00:23:39;;;;;;;12.85;7.37;;;;;;;4.33;69.96;100705.53;1773684;79;21036;-68
2022/02/10 00:34:13;;;;;;;12.53;6.53;;;;;;;4.40;70.22;100703.66;1770882;79;21067;-69
2022/02/10 00:36:44;;;;;;;13.65;6.90;;;;;;;4.44;70.23;100705.36;1769378;81;20996;-69
2022/02/10 00:39:33;;;;;;;15.68;8.43;;;;;;;4.44;70.20;100703.55;1773199;79;21635;-69
2022/02/10 00:41:49;;;;;;;13.32;7.33;;;;;;;4.45;70.19;100698.55;1797462;79;20989;-69
2022/02/10 00:44:15;;;;;;;12.28;7.90;;;;;;;4.48;70.19;100692.03;1800945;79;21443;-68
2022/02/10 00:46:43;;;;;;;14.28;7.58;;;;;;;4.48;70.17;100687.27;1800012;79;21005;-69
2022/02/10 00:49:10;;;;;;;14.20;7.22;;;;;;;4.48;70.23;100684.09;1801112;79;21011;-69
2022/02/10 00:51:37;;;;;;;12.43;6.45;;;;;;;4.46;70.30;100684.30;1779576;79;21874;-69
2022/02/10 00:54:04;;;;;;;11.43;6.60;;;;;;;4.45;70.53;100679.23;1769253;81;21115;-68
2022/02/10 00:56:32;;;;;;;13.05;6.97;;;;;;;4.39;70.70;100675.59;1783544;79;21058;-68
2022/02/10 00:59:18;;;;;;;13.18;7.28;;;;;;;4.37;71.05;100659.64;1801438;79;21036;-69
2022/02/10 01:07:06;;;;;;;13.15;7.45;;;;;;;4.29;72.21;100666.00;1800771;79;21086;-68
2022/02/10 01:12:43;;;;;;;14.93;8.08;;;;;;;4.21;72.91;100660.95;1800865;79;21039;-68
2022/02/10 01:31:19;;;;;;;10.58;7.05;;;;;;;4.26;74.64;100657.17;1800969;79;21165;-68
2022/02/10 01:33:46;;;;;;;11.57;7.05;;;;;;;4.26;74.90;100661.14;1800957;79;20972;-69
2022/02/10 01:36:14;;;;;;;11.10;6.53;;;;;;;4.27;75.05;100652.17;1801048;79;32485;-68
2022/02/10 01:38:41;;;;;;;13.98;8.13;;;;;;;4.30;75.25;100653.59;1800958;79;21664;-68
2022/02/10 02:05:45;;;;;;;15.53;8.35;;;;;;;4.37;76.39;100626.58;1801153;79;21483;-68
2022/02/10 02:08:09;;;;;;;12.68;8.83;;;;;;;4.38;76.47;100624.25;1800048;79;20968;-68
2022/02/10 02:10:36;;;;;;;12.93;8.38;;;;;;;4.41;76.59;100624.64;1801083;79;21203;-68
2022/02/10 02:13:03;;;;;;;14.25;8.18;;;;;;;4.43;76.75;100627.86;1801030;79;20929;-69
2022/02/10 02:15:31;;;;;;;14.85;9.68;;;;;;;4.42;76.91;100632.05;1800912;79;21150;-68
2022/02/10 02:18:00;;;;;;;11.63;8.33;;;;;;;4.40;77.01;100626.96;1799493;79;20925;-68
2022/02/10 02:20:27;;;;;;;12.82;8.45;;;;;;;4.43;77.16;100622.56;1773240;79;20980;-68
2022/02/10 02:22:53;;;;;;;12.50;8.55;;;;;;;4.45;77.33;100621.85;1769302;81;21810;-68
2022/02/10 02:25:21;;;;;;;14.25;8.93;;;;;;;4.50;77.43;100630.97;1768820;81;21396;-68
2022/02/10 02:27:52;;;;;;;14.35;8.75;;;;;;;4.50;77.71;100630.97;1769402;80;21594;-69
2022/02/10 02:30:36;;;;;;;12.68;7.72;;;;;;;4.50;77.84;100628.33;1769777;81;21479;-68
2022/02/10 03:08:39;;;;;;;11.30;7.78;;;;;;;4.98;80.79;100623.77;1758940;79;21114;-68
2022/02/10 03:11:06;;;;;;;9.85;7.30;;;;;;;5.04;80.85;100628.19;1799919;79;21027;-67
2022/02/10 03:13:35;;;;;;;9.28;7.08;;;;;;;5.06;80.92;100612.88;1800049;79;21130;-68
2022/02/10 03:18:48;;;;;;;;;;;;;;;5.10;80.99;100621.99;1803783;79;21424;-68
2022/02/10 04:02:47;;;;;;;10.38;7.62;;;;;;;5.73;81.74;100605.81;1785987;79;20929;-68
2022/02/10 04:13:02;;;;;;;9.88;8.35;;;;;;;5.92;82.15;100608.41;1784360;80;21430;-67
2022/02/10 04:15:29;;;;;;;11.38;8.60;;;;;;;5.96;82.14;100609.63;1783261;80;20984;-67
2022/02/10 04:18:22;;;;;;;12.63;9.60;;;;;;;5.95;82.19;100617.27;1785942;80;21110;-67
2022/02/10 04:23:14;;;;;;;11.20;8.85;;;;;;;5.97;82.11;100616.02;1787088;80;21129;-67
2022/02/10 04:30:55;;;;;;;14.05;10.13;;;;;;;;;;1787529;80;21118;-67
2022/02/10 04:59:53;;;;;;;12.93;10.63;;;;;;;5.99;81.29;100631.70;1800389;79;20925;-68
2022/02/10 05:02:44;;;;;;;14.28;10.85;;;;;;;6.00;81.18;100624.86;1797468;79;21955;-68
2022/02/10 05:13:47;;;;;;;14.07;10.80;;;;;;;5.95;80.72;100633.98;1797880;79;20977;-68
2022/02/10 05:15:57;;;;;;;15.13;11.57;;;;;;;6.00;80.63;100643.94;1797585;79;21101;-67
2022/02/10 05:18:12;;;;;;;15.05;11.70;;;;;;;5.96;80.48;100647.55;1797087;79;20984;-68
2022/02/10 05:31:46;;;;;;;15.25;11.57;;;;;;;5.98;80.02;100644.67;1801014;79;21492;-68
2022/02/10 05:33:56;;;;;;;15.18;11.35;;;;;;;6.00;79.97;100647.39;1773113;79;20988;-67
2022/02/10 05:36:23;;;;;;;16.17;12.20;;;;;;;6.04;79.89;100652.53;1771035;79;21510;-67
2022/02/10 05:38:55;;;;;;;15.08;12.05;;;;;;;6.04;79.67;100649.08;1770854;79;21038;-67
2022/02/10 05:44:25;;;;;;;16.67;12.13;;;;;;;6.06;79.47;100661.08;1770955;79;21479;-68
2022/02/10 05:46:51;;;;;;;15.63;12.28;;;;;;;6.06;79.39;100661.08;1769628;81;20949;-67
2022/02/10 05:49:38;;;;;;;15.60;12.18;;;;;;;6.10;79.24;100664.09;1779669;79;20992;-68
2022/02/10 06:00:12;;;;;;;16.10;12.40;;;;;;;6.13;78.70;100667.63;1833886;78;21550;-68
2022/02/10 06:03:09;;;;;;;16.67;12.90;;;;;;;6.14;78.65;100665.26;1829891;78;21078;-67
2022/02/10 06:51:20;;;;;;;15.53;12.15;;;;;;;6.62;76.97;100698.07;1749987;82;20996;-67
2022/02/10 06:53:49;;;;;;;14.15;11.57;;;;;;;6.65;76.80;100693.11;1748523;82;21003;-68
2022/02/10 07:12:52;;;;;;;13.88;11.40;;;;;;;6.79;75.98;100699.83;1749955;82;21052;-67
2022/02/10 07:47:47;;;;;;;15.13;11.60;;;;;;;7.32;73.43;100719.39;1737892;81;20971;-67
2022/02/10 08:00:41;;;;;;;15.95;12.03;;;;;;;7.42;72.81;100702.88;1759807;81;21514;-67
2022/02/10 08:50:00;;;;;;;12.63;10.30;;;;;;;8.12;70.32;100741.81;1760029;81;21177;-67
2022/02/10 08:55:09;;;;;;;13.38;10.30;;;;;;;8.31;69.78;100752.58;1759854;81;20984;-67
2022/02/10 08:57:48;;;;;;;12.60;9.85;;;;;;;8.37;69.40;100753.48;1749353;81;21513;-67
2022/02/10 09:08:50;;;;;;;13.80;10.90;;;;;;;8.48;68.46;100741.20;1729384;83;21570;-67
2022/02/10 09:49:15;;;;;;;11.55;9.60;;;;;;;8.29;68.75;100735.22;1729458;83;20983;-68
2022/02/10 09:52:05;;;;;;;12.95;10.55;;;;;;;8.28;68.69;100738.41;1725698;83;21015;-68
2022/02/10 09:56:13;;;;;;;12.73;9.78;;;;;;;8.33;68.65;100740.38;1729767;83;21486;-69
2022/02/10 10:01:30;;;;;;;12.30;9.95;;;;;;;8.44;68.42;100744.34;1729780;83;21011;-68
2022/02/10 10:04:18;;;;;;;11.93;10.60;;;;;;;8.45;68.25;100747.27;1707938;83;21113;-70
2022/02/10 10:06:57;;;;;;;12.07;9.40;;;;;;;8.51;68.15;100742.06;1728966;83;21034;-69
2022/02/10 10:15:21;;;;;;;11.40;8.83;;;;;;;8.56;67.68;100760.80;1729390;83;21593;-69
2022/02/10 10:17:59;;;;;;;11.08;9.25;;;;;;;8.53;67.80;100742.64;1725222;83;21072;-68
2022/02/10 10:20:38;;;;;;;10.45;8.55;;;;;;;8.55;67.65;100744.52;1696059;83;21040;-68
2022/02/10 10:26:05;;;;;;;9.95;8.93;;;;;;;8.63;67.62;100732.17;1759872;81;21490;-69
2022/02/10 10:50:55;;;;;;;11.05;9.15;;;;;;;9.01;66.20;100727.47;1759748;81;21058;-67
2022/02/10 10:58:31;;;;;;;9.50;8.15;;;;;;;9.12;65.60;100713.27;1733500;81;20996;-69
2022/02/10 12:36:25;;;;;;;11.38;9.60;;;;;;;8.41;66.64;100720.86;1759873;81;21106;-68
2022/02/10 12:39:04;;;;;;;12.35;9.45;;;;;;;8.39;66.75;100719.47;1755342;81;21054;-68
2022/02/10 12:43:59;;;;;;;12.90;10.48;;;;;;;8.40;66.86;100731.23;1759436;81;20987;-69
2022/02/10 14:13:23;;;;;;;13.58;10.90;;;;;;;8.14;67.79;100761.83;1759534;81;21209;-68
2022/02/10 14:25:56;;;;;;;11.78;9.53;;;;;;;8.00;68.10;100767.13;1760054;81;21019;-68
2022/02/10 14:28:18;;;;;;;11.12;9.08;;;;;;;7.98;68.17;100771.87;1758404;81;21048;-69
2022/02/10 14:30:46;;;;;;;12.13;10.05;;;;;;;7.96;68.26;100769.95;1759719;81;21175;-68
2022/02/10 14:33:14;;;;;;;10.45;8.33;;;;;;;7.97;68.24;100769.73;1759319;81;20889;-67
2022/02/10 14:35:56;;;;;;;10.78;8.10;;;;;;;7.96;68.16;100772.61;1759946;81;21423;-67
2022/02/10 15:47:08;;;;;;;19.62;14.63;;;;;;;6.91;70.56;100780.84;1729499;83;21039;-68
2022/02/10 15:49:23;;;;;;;17.40;13.48;;;;;;;6.89;70.52;100786.89;1725470;83;21062;-68
2022/02/10 15:51:59;;;;;;;16.85;12.80;;;;;;;6.86;70.50;100784.69;1742328;81;21802;-68
2022/02/10 15:54:28;;;;;;;17.20;12.80;;;;;;;6.79;70.53;100782.13;1755506;81;21006;-68
2022/02/10 16:18:49;;;;;;;20.70;14.63;;;;;;;6.05;72.33;100796.00;1729453;83;21994;-67
2022/02/10 16:21:44;;;;;;;19.75;14.78;;;;;;;6.00;72.43;100787.11;1729478;83;20979;-67
2022/02/10 16:24:29;;;;;;;19.05;13.80;;;;;;;5.96;72.63;100789.92;1729223;83;21446;-67
2022/02/10 16:26:57;;;;;;;19.82;14.80;;;;;;;5.90;72.90;100788.92;1728287;83;21059;-67
2022/02/10 16:29:25;;;;;;;20.15;14.15;;;;;;;5.87;72.99;100786.19;1703327;83;21561;-68
2022/02/10 16:31:52;;;;;;;19.73;14.63;;;;;;;5.82;73.11;100788.70;1729880;83;21109;-68
2022/02/10 16:34:22;;;;;;;18.42;14.47;;;;;;;5.79;73.20;100789.63;1747791;81;21537;-68
2022/02/10 16:36:48;;;;;;;22.25;15.83;;;;;;;5.74;73.31;100786.84;1759846;81;21534;-68
2022/02/10 16:39:18;;;;;;;21.55;15.65;;;;;;;5.72;73.33;100799.48;1759538;81;20952;-69
2022/02/10 16:41:45;;;;;;;22.60;15.68;;;;;;;5.69;73.33;100795.42;1759572;81;20991;-69
2022/02/10 16:44:11;;;;;;;22.67;16.25;;;;;;;5.66;73.28;100805.17;1759787;81;21497;-68
2022/02/10 16:46:38;;;;;;;23.22;16.05;;;;;;;5.61;73.31;100801.83;1759535;81;21482;-68
2022/02/10 16:49:05;;;;;;;20.50;14.95;;;;;;;5.60;73.28;100803.38;1759478;81;21015;-68
2022/02/10 16:51:34;;;;;;;20.32;14.35;;;;;;;5.55;73.34;100804.54;1759777;81;21047;-68
2022/02/10 16:54:10;;;;;;;18.32;13.38;;;;;;;5.51;73.37;100799.39;1751458;81;21000;-68
2022/02/10 16:56:46;;;;;;;21.00;13.45;;;;;;;5.46;73.36;100804.51;1734091;81;21034;-68
2022/02/10 16:59:12;;;;;;;17.57;13.53;;;;;;;5.40;73.41;100800.39;1755669;80;21062;-68
2022/02/10 17:17:45;;;;;;;19.02;14.63;;;;;;;5.11;74.20;100806.32;1769376;81;21099;-69
2022/02/10 17:25:18;;;;;;;19.17;14.35;;;;;;;5.01;74.50;100811.28;1769558;81;21029;-68
2022/02/10 17:27:46;;;;;;;19.42;14.35;;;;;;;4.97;74.63;100807.41;1768788;81;21035;-69
2022/02/10 17:33:01;;;;;;;20.32;15.45;;;;;;;4.88;75.08;100810.84;1784512;79;21066;-68
2022/02/10 17:35:34;;;;;;;22.70;16.75;;;;;;;4.83;75.16;100808.82;1797659;79;21122;-67
2022/02/10 17:46:08;;;;;;;21.68;16.75;;;;;;;4.70;75.94;100811.05;1801129;79;20985;-68
2022/02/10 17:54:04;;;;;;;24.80;17.85;;;;;;;4.63;76.35;100828.77;1801112;79;21051;-69
2022/02/10 17:56:31;;;;;;;24.85;18.20;;;;;;;4.62;76.52;100824.52;1800897;79;20985;-69
2022/02/10 17:58:57;;;;;;;26.27;18.12;;;;;;;4.62;76.69;100819.73;1801037;79;21044;-69
2022/02/10 18:01:28;;;;;;;25.88;18.80;;;;;;;4.60;76.80;100818.61;1801001;79;21944;-69
2022/02/10 18:03:54;;;;;;;24.70;18.17;;;;;;;4.59;76.84;100813.55;1800815;79;20944;-69
2022/02/10 18:06:29;;;;;;;26.02;19.62;;;;;;;4.56;76.89;100808.67;1801099;79;20965;-69
2022/02/10 18:09:21;;;;;;;26.55;19.73;;;;;;;4.55;76.97;100815.00;1800780;79;20957;-69
2022/02/10 18:19:37;;;;;;;25.68;18.27;;;;;;;4.47;77.11;100813.37;1753817;80;21051;-68
2022/02/10 18:30:11;;;;;;;22.55;17.20;;;;;;;4.31;77.47;100806.75;1769196;81;21051;-68
2022/02/10 19:01:34;;;;;;;26.00;19.82;;;;;;;4.09;77.87;100802.24;1801171;79;21112;-68
2022/02/10 19:03:35;;;;;;;26.93;19.98;;;;;;;4.00;77.96;100805.61;1785230;80;21094;-68
2022/02/10 19:08:05;;;;;;;26.30;18.50;;;;;;;3.94;78.08;100798.51;1784915;80;21570;-68
2022/02/10 19:10:24;;;;;;;28.77;20.65;;;;;;;3.91;78.09;100793.63;1790559;78;21043;-70
2022/02/10 19:12:58;;;;;;;28.47;20.57;;;;;;;3.90;78.17;100793.86;1790421;78;21087;-70
2022/02/10 19:15:23;;;;;;;26.10;19.27;;;;;;;3.89;78.23;100794.37;1645496;78;10000513;-69
2022/02/10 19:17:50;;;;;;;28.87;20.47;;;;;;;3.89;78.23;100797.02;1629060;81;10000361;-68
2022/02/10 19:20:20;;;;;;;25.23;18.93;;;;;;;3.87;78.28;100792.43;1746637;81;20956;-68
2022/02/10 19:22:48;;;;;;;28.20;21.15;;;;;;;3.86;78.42;100793.45;1750039;81;21067;-68
2022/02/10 19:25:21;;;;;;;30.05;21.37;;;;;;;3.84;78.51;100787.55;1712051;81;21031;-68
2022/02/10 19:27:49;;;;;;;;;;;;;;;3.85;78.50;100782.59;1757137;81;21245;-68
2022/02/10 19:30:21;;;;;;;29.27;21.25;;;;;;;3.86;78.52;100784.20;1747418;81;20249;-67
2022/02/10 19:32:54;;;;;;;27.93;20.75;;;;;;;3.87;78.50;100785.02;1742811;81;21050;-68
2022/02/10 19:35:22;;;;;;;26.27;19.90;;;;;;;3.87;78.42;100779.22;1756689;81;21031;-68
2022/02/10 19:37:54;;;;;;;28.38;21.07;;;;;;;3.87;78.35;100780.54;1744934;79;21043;-68
2022/02/10 19:40:17;;;;;;;27.70;21.00;;;;;;;3.86;78.34;100781.56;1739757;81;21179;-68
2022/02/10 19:42:46;;;;;;;27.45;20.70;;;;;;;3.85;78.29;100782.59;1757920;79;21070;-68
2022/02/10 19:45:12;;;;;;;27.90;20.52;;;;;;;3.84;78.24;100784.91;1757886;81;21594;-69
2022/02/10 19:47:40;;;;;;;26.87;19.98;;;;;;;3.83;78.19;100787.27;1751218;79;21079;-68
2022/02/10 19:50:16;;;;;;;27.80;20.12;;;;;;;3.84;78.17;100791.52;1786674;78;21199;-69
2022/02/10 19:52:46;;;;;;;;;;;;;;;3.81;78.14;100794.57;1795711;78;21143;-68
2022/02/10 19:55:17;;;;;;;27.10;20.17;;;;;;;3.80;78.16;100791.64;1784148;79;20479;-67
2022/02/10 19:57:41;;;;;;;27.75;20.68;;;;;;;3.79;78.13;100797.95;1794768;78;21640;-68
2022/02/10 20:00:16;;;;;;;29.70;21.87;;;;;;;3.76;78.10;100790.43;1783144;78;21110;-68
2022/02/10 20:02:41;;;;;;;;;;;;;;;3.76;78.14;100788.59;1773516;79;21034;-68
2022/02/10 20:05:08;;;;;;;30.08;21.27;;;;;;;3.78;78.11;100788.38;1762597;79;21214;-69
2022/02/10 20:07:40;;;;;;;28.65;20.75;;;;;;;3.78;78.06;100785.73;1787298;79;21572;-67
2022/02/10 20:10:08;;;;;;;28.73;20.88;;;;;;;3.80;77.94;100785.03;1787879;79;21071;-67
2022/02/10 20:12:40;;;;;;;28.32;21.02;;;;;;;3.81;77.77;100791.12;1799144;79;21071;-69
2022/02/10 20:15:10;;;;;;;30.15;21.55;;;;;;;3.79;77.72;100779.97;1786048;78;21106;-69
2022/02/10 20:17:36;;;;;;;31.50;22.42;;;;;;;3.78;77.62;100780.45;1753066;81;21236;-67
2022/02/10 20:20:05;;;;;;;31.02;22.15;;;;;;;3.79;77.56;100777.33;1746797;80;21035;-69
2022/02/10 20:22:39;;;;;;;31.27;22.22;;;;;;;3.77;77.41;100773.55;1741003;81;21573;-68
2022/02/10 20:25:06;;;;;;;31.40;21.52;;;;;;;3.76;77.26;100774.58;1750853;80;21046;-69
2022/02/10 20:27:34;;;;;;;29.85;21.00;;;;;;;3.74;77.15;100774.77;1747694;81;21664;-68
2022/02/10 20:30:04;;;;;;;31.95;22.62;;;;;;;3.71;77.06;100771.73;1755451;81;21982;-69
2022/02/10 20:32:31;;;;;;;32.65;23.98;;;;;;;3.68;76.99;100770.82;1757205;81;21581;-68
2022/02/10 20:34:57;;;;;;;31.40;23.40;;;;;;;3.62;76.84;100770.31;1757879;81;21055;-68
2022/02/10 20:37:25;;;;;;;31.30;22.37;;;;;;;3.57;76.82;100776.73;1738354;81;21046;-68
2022/02/10 20:39:52;;;;;;;34.10;22.95;;;;;;;3.53;76.82;100778.47;1754703;81;21058;-68
2022/02/10 20:42:20;;;;;;;29.65;22.02;;;;;;;3.50;76.74;100774.91;1757679;81;21771;-68
2022/02/10 20:44:52;;;;;;;32.00;22.82;;;;;;;3.46;76.67;100776.34;1737011;81;21050;-68
2022/02/10 20:47:18;;;;;;;30.55;21.45;;;;;;;3.44;76.61;100769.13;1756925;81;21035;-68
2022/02/10 20:49:45;;;;;;;30.45;21.40;;;;;;;3.37;76.43;100769.64;1757287;81;21047;-68
2022/02/10 20:52:12;;;;;;;28.57;20.68;;;;;;;3.34;76.45;100767.92;1757322;81;21042;-68
2022/02/10 20:54:40;;;;;;;30.70;22.77;;;;;;;3.34;76.42;100762.64;1718245;81;21822;-68
2022/02/10 20:57:08;;;;;;;32.00;23.27;;;;;;;3.36;76.39;100756.66;1757682;81;21309;-68
2022/02/10 20:59:39;;;;;;;31.95;23.35;;;;;;;3.37;76.40;100757.77;1757822;81;21021;-68
2022/02/10 21:02:11;;;;;;;30.25;22.25;;;;;;;3.39;76.34;100761.50;1757467;81;21221;-68
2022/02/10 21:05:01;;;;;;;29.87;22.25;;;;;;;3.40;76.29;100756.55;1757785;81;21126;-68
2022/02/10 21:07:34;;;;;;;29.37;21.70;;;;;;;3.42;76.29;100752.70;1756762;81;21488;-68
2022/02/10 21:10:05;;;;;;;33.90;23.42;;;;;;;3.45;76.37;100746.98;1748981;81;21055;-68
2022/02/10 21:12:30;;;;;;;33.25;22.75;;;;;;;3.52;76.48;100752.25;1725567;83;21018;-68
2022/02/10 21:14:57;;;;;;;29.85;21.35;;;;;;;3.55;76.49;100755.80;1756566;81;21625;-68
2022/02/10 21:17:26;;;;;;;28.95;21.37;;;;;;;3.53;76.43;100753.38;1757714;81;21042;-67
2022/02/10 21:19:59;;;;;;;30.97;21.30;;;;;;;3.57;76.43;100754.30;1757382;81;21794;-68
2022/02/10 21:22:23;;;;;;;27.95;19.98;;;;;;;3.59;76.39;100750.95;1756573;81;21085;-68
2022/02/10 21:24:56;;;;;;;29.27;21.33;;;;;;;3.60;76.33;100748.60;1758010;81;21093;-68
2022/02/10 21:27:29;;;;;;;28.85;20.88;;;;;;;3.62;76.30;100740.78;1751090;81;21074;-68
2022/02/10 21:29:58;;;;;;;30.37;21.62;;;;;;;3.63;76.18;100738.44;1735753;81;21616;-68
2022/02/10 21:32:23;;;;;;;28.17;20.82;;;;;;;3.66;76.13;100740.66;1757183;81;21174;-68
2022/02/10 21:35:10;;;;;;;28.35;21.35;;;;;;;3.64;76.02;100724.71;1757460;81;21643;-68
2022/02/10 21:37:21;;;;;;;29.48;21.75;;;;;;;3.59;75.85;100725.86;1753126;81;21086;-68
2022/02/10 21:39:56;;;;;;;30.08;21.60;;;;;;;3.58;75.85;100720.25;1757348;81;21082;-69
2022/02/10 22:03:56;;;;;;;30.55;21.75;;;;;;;3.74;75.65;100692.06;1728451;83;21697;-67
2022/02/10 22:11:34;;;;;;;27.93;19.82;;;;;;;3.79;75.46;100694.10;1759550;80;21609;-68
2022/02/10 22:17:03;;;;;;;31.17;21.23;;;;;;;3.77;75.50;100698.26;1739203;81;21496;-68
2022/02/10 22:19:19;;;;;;;27.48;20.08;;;;;;;3.75;75.59;100703.77;1735721;81;21588;-68
2022/02/10 22:21:52;;;;;;;27.37;19.55;;;;;;;3.74;75.65;100701.31;1740053;81;21526;-69
2022/02/10 22:24:16;;;;;;;27.27;20.10;;;;;;;3.68;75.61;100696.86;1755536;81;21618;-69
2022/02/10 22:26:43;;;;;;;27.70;19.70;;;;;;;3.62;75.64;100695.04;1751674;81;21042;-69
2022/02/10 22:29:19;;;;;;;27.65;19.77;;;;;;;3.59;75.73;100690.20;1757337;81;21093;-69
2022/02/10 22:31:55;;;;;;;29.10;21.02;;;;;;;3.57;75.76;100690.91;1757083;81;20983;-67
2022/02/10 22:36:59;;;;;;;30.62;21.33;;;;;;;3.57;75.95;100690.91;1731960;81;21141;-67
2022/02/10 22:39:26;;;;;;;28.67;21.27;;;;;;;3.58;76.05;100687.23;1752621;81;21117;-68
2022/02/10 22:41:54;;;;;;;28.35;21.75;;;;;;;3.62;76.12;100681.35;1758180;81;21086;-68
2022/02/10 22:44:21;;;;;;;26.55;19.92;;;;;;;3.68;76.21;100681.81;1757696;81;21151;-68
2022/02/10 22:46:48;;;;;;;29.67;20.52;;;;;;;3.75;76.22;100682.62;1757768;81;21046;-68
2022/02/10 22:49:15;;;;;;;28.98;19.98;;;;;;;3.81;76.22;100684.12;1757698;81;21169;-68
2022/02/10 22:51:42;;;;;;;27.62;20.48;;;;;;;3.87;76.24;100675.36;1757488;81;21094;-68
2022/02/10 22:54:09;;;;;;;29.35;20.62;;;;;;;3.91;76.25;100672.08;1730095;81;21046;-68
2022/02/10 22:56:38;;;;;;;27.80;20.27;;;;;;;3.95;76.28;100668.02;1757689;81;21046;-68
2022/02/10 22:59:07;;;;;;;29.65;21.15;;;;;;;4.00;76.31;100670.02;1757796;81;21220;-68
2022/02/10 23:01:37;;;;;;;28.87;20.70;;;;;;;4.05;76.33;100668.88;1737975;81;21875;-67
2022/02/10 23:04:04;;;;;;;29.12;21.02;;;;;;;4.11;76.30;100671.98;1757285;81;21590;-69
2022/02/10 23:06:31;;;;;;;27.42;20.97;;;;;;;4.16;76.31;100672.17;1754780;81;21016;-68
2022/02/10 23:09:00;;;;;;;28.62;20.32;;;;;;;4.26;76.30;100681.48;1759753;81;21042;-68
2022/02/10 23:11:29;;;;;;;27.35;20.72;;;;;;;4.33;76.30;100680.92;1759649;81;21106;-68
2022/02/10 23:13:59;;;;;;;26.90;20.37;;;;;;;4.38;76.20;100685.89;1759337;81;21124;-68
2022/02/10 23:16:27;;;;;;;28.17;20.52;;;;;;;4.39;76.08;100679.56;1759643;81;21526;-69
2022/02/10 23:18:59;;;;;;;26.05;20.40;;;;;;;4.42;76.01;100683.11;1759762;81;20960;-68
2022/02/10 23:21:25;;;;;;;26.57;20.43;;;;;;;4.46;75.94;100685.62;1759892;81;21098;-68
2022/02/10 23:23:52;;;;;;;26.12;19.67;;;;;;;4.50;75.85;100686.00;1749732;81;21177;-68
2022/02/10 23:26:20;;;;;;;27.65;20.52;;;;;;;4.51;75.82;100688.13;1729469;83;21163;-68
2022/02/10 23:28:51;;;;;;;26.42;20.02;;;;;;;4.56;75.84;100688.31;1729278;81;21566;-68
2022/02/10 23:31:22;;;;;;;28.87;21.00;;;;;;;4.60;75.89;100692.95;1729719;83;21134;-68
2022/02/10 23:33:52;;;;;;;28.80;21.20;;;;;;;4.63;75.78;100687.23;1729362;83;21070;-68
2022/02/10 23:36:39;;;;;;;27.25;20.52;;;;;;;4.65;75.67;100682.55;1729167;83;21109;-68
2022/02/10 23:39:13;;;;;;;28.07;20.27;;;;;;;4.65;75.58;100683.88;1725704;83;21185;-68
2022/02/10 23:43:50;;;;;;;28.85;20.72;;;;;;;4.69;75.43;100686.89;1729577;83;20179;-68
2022/02/10 23:46:18;;;;;;;27.90;20.17;;;;;;;4.70;75.35;100676.60;1729488;83;21010;-68
2022/02/10 23:48:47;;;;;;;29.05;20.82;;;;;;;4.73;75.30;100674.05;1729387;83;20959;-68
2022/02/10 23:51:16;;;;;;;27.15;21.02;;;;;;;4.73;75.19;100669.56;1729517;83;21285;-68
2022/02/10 23:53:44;;;;;;;26.75;19.57;;;;;;;4.74;75.09;100669.04;1729398;83;20992;-68
2022/02/10 23:56:14;;;;;;;25.85;19.60;;;;;;;4.73;75.03;100664.78;1729509;83;21063;-68
2022/02/10 23:58:55;;;;;;;24.77;19.12;;;;;;;4.72;74.93;100662.66;1729206;83;20983;-68
